Time;durP1;ratioP1;P1;durP2;ratioP2;P2;SDS_P1;SDS_P2;PMS_P1;PMS_P2;Temp;Humidity;BMP_temperature;BMP_pressure;BME280_temperature;BME280_humidity;BME280_pressure;Samples;Min_cycle;Max_cycle;Signal;HPM_P1;HPM_P2
2022/05/31 00:02:19;;;;;;;17.48;15.98;;;5.30;99.90;;;;;;4997865;28;20053;-73
2022/05/31 00:04:46;;;;;;;18.00;16.30;;;5.20;99.90;;;;;;4987603;28;20143;-73
2022/05/31 00:07:13;;;;;;;17.60;16.05;;;5.20;99.90;;;;;;4987065;28;20089;-74
2022/05/31 00:09:40;;;;;;;16.52;15.00;;;5.10;99.90;;;;;;5004155;28;20357;-75
2022/05/31 00:12:07;;;;;;;18.13;16.33;;;5.10;99.90;;;;;;4977447;28;20050;-74
2022/05/31 00:14:34;;;;;;;17.42;15.75;;;5.30;99.90;;;;;;4994510;28;20050;-75
2022/05/31 00:17:01;;;;;;;18.30;16.80;;;5.30;99.90;;;;;;4983830;28;20116;-74
2022/05/31 00:19:28;;;;;;;17.05;15.65;;;5.10;99.90;;;;;;5007837;28;20048;-75
2022/05/31 00:22:15;;;;;;;19.13;17.08;;;5.20;99.90;;;;;;4969470;28;20100;-73
2022/05/31 00:24:42;;;;;;;17.00;15.45;;;5.20;99.90;;;;;;4983239;28;20112;-73
2022/05/31 00:27:11;;;;;;;18.13;16.65;;;5.10;99.90;;;;;;4967071;28;20157;-75
2022/05/31 00:29:38;;;;;;;16.98;15.52;;;5.10;99.90;;;;;;4984683;28;20149;-74
2022/05/31 00:32:07;;;;;;;18.33;16.58;;;5.00;99.90;;;;;;4968621;28;20688;-74
2022/05/31 00:34:37;;;;;;;22.08;17.20;;;5.20;99.90;;;;;;4985645;28;20705;-74
2022/05/31 00:37:05;;;;;;;18.83;17.00;;;5.30;99.90;;;;;;4969495;28;20049;-72
2022/05/31 00:39:32;;;;;;;18.13;16.52;;;5.30;99.90;;;;;;4974626;28;20078;-74
2022/05/31 00:41:59;;;;;;;18.88;17.13;;;5.10;99.90;;;;;;4965036;28;20573;-74
2022/05/31 00:44:28;;;;;;;19.55;17.75;;;5.00;99.90;;;;;;4992155;28;20073;-72
2022/05/31 00:47:01;;;;;;;18.30;16.75;;;5.00;99.90;;;;;;4983237;28;20516;-72
2022/05/31 00:49:33;;;;;;;18.83;17.10;;;4.90;99.90;;;;;;4977656;28;20465;-75
2022/05/31 00:52:11;;;;;;;18.75;16.92;;;4.90;99.90;;;;;;4998984;28;20045;-75
2022/05/31 00:54:53;;;;;;;18.02;16.73;;;4.90;99.90;;;;;;4984650;28;20088;-75
2022/05/31 00:57:21;;;;;;;19.45;17.55;;;4.80;99.90;;;;;;4968872;28;20057;-75
2022/05/31 00:59:53;;;;;;;17.70;16.30;;;4.80;99.90;;;;;;4986115;28;20073;-75
2022/05/31 01:02:21;;;;;;;18.50;17.10;;;4.70;99.90;;;;;;4983547;28;20116;-73
2022/05/31 01:04:53;;;;;;;19.13;17.33;;;4.80;99.90;;;;;;4968669;28;20089;-74
2022/05/31 01:07:20;;;;;;;18.48;17.08;;;4.70;99.90;;;;;;4981428;28;20137;-75
2022/05/31 01:09:47;;;;;;;18.45;16.75;;;4.90;99.90;;;;;;4972394;28;20054;-72
2022/05/31 01:12:33;;;;;;;18.73;17.15;;;5.10;99.90;;;;;;4998762;28;20041;-75
2022/05/31 01:15:19;;;;;;;18.70;17.20;;;5.10;99.90;;;;;;4999598;28;20149;-72
2022/05/31 01:18:05;;;;;;;19.13;17.30;;;4.90;99.90;;;;;;5002745;28;20404;-73
2022/05/31 01:20:55;;;;;;;18.67;17.05;;;4.80;99.90;;;;;;4962249;28;20042;-72
2022/05/31 01:23:43;;;;;;;19.52;17.40;;;4.90;99.90;;;;;;4968178;28;20053;-72
2022/05/31 01:26:34;;;;;;;18.63;17.23;;;4.90;99.90;;;;;;4970185;28;20058;-73
2022/05/31 01:29:05;;;;;;;18.35;16.85;;;5.10;99.90;;;;;;4969412;28;20667;-74
2022/05/31 01:31:44;;;;;;;19.02;17.20;;;5.00;99.90;;;;;;4997330;28;20092;-72
2022/05/31 01:34:21;;;;;;;18.38;17.05;;;5.00;99.90;;;;;;4980391;28;20132;-74
2022/05/31 01:36:50;;;;;;;18.20;16.63;;;5.10;99.90;;;;;;4991015;28;20073;-73
2022/05/31 01:39:32;;;;;;;18.83;17.33;;;5.10;99.90;;;;;;4966818;28;20058;-74
2022/05/31 01:42:04;;;;;;;19.98;17.90;;;4.90;99.90;;;;;;4981028;28;20233;-73
2022/05/31 01:44:35;;;;;;;18.52;17.00;;;5.00;99.90;;;;;;4958860;28;20100;-74
2022/05/31 01:47:03;;;;;;;19.05;17.40;;;4.90;99.90;;;;;;4999694;28;20104;-75
2022/05/31 01:49:34;;;;;;;19.50;17.77;;;5.00;99.90;;;;;;5009006;28;20073;-75
2022/05/31 01:52:02;;;;;;;19.25;17.67;;;4.90;99.90;;;;;;4980965;28;20046;-75
2022/05/31 01:54:30;;;;;;;18.60;16.90;;;4.70;99.90;;;;;;4984781;28;20057;-74
2022/05/31 01:57:01;;;;;;;18.90;17.08;;;4.60;99.90;;;;;;4982858;28;20049;-72
2022/05/31 01:59:34;;;;;;;19.98;17.90;;;4.60;99.90;;;;;;4969914;28;20057;-72
2022/05/31 02:02:02;;;;;;;19.60;17.55;;;4.80;99.90;;;;;;4984036;28;20066;-73
2022/05/31 02:04:29;;;;;;;19.25;17.48;;;4.70;99.90;;;;;;4968717;28;20417;-71
2022/05/31 02:07:11;;;;;;;18.13;16.50;;;4.70;99.90;;;;;;4967962;28;20082;-75
2022/05/31 02:09:42;;;;;;;19.95;17.85;;;4.90;99.90;;;;;;4997802;28;20057;-74
2022/05/31 02:12:20;;;;;;;18.63;17.00;;;4.60;99.90;;;;;;4997788;28;20453;-75
2022/05/31 02:15:06;;;;;;;18.05;16.35;;;4.60;99.90;;;;;;4975708;28;20053;-72
2022/05/31 02:17:33;;;;;;;19.10;17.17;;;4.80;99.90;;;;;;4967816;28;20377;-73
2022/05/31 02:20:28;;;;;;;19.92;16.65;;;4.80;99.90;;;;;;5007644;28;20417;-73
2022/05/31 02:22:55;;;;;;;17.38;15.88;;;4.90;99.90;;;;;;5020672;28;20054;-73
2022/05/31 02:25:22;;;;;;;18.95;17.10;;;4.90;99.90;;;;;;4975556;28;20097;-74
2022/05/31 02:27:49;;;;;;;17.58;15.95;;;4.90;99.90;;;;;;4987436;28;20034;-75
2022/05/31 02:30:16;;;;;;;18.10;16.15;;;4.80;99.90;;;;;;4971553;28;20050;-74
2022/05/31 02:32:43;;;;;;;18.23;16.13;;;4.70;99.90;;;;;;4968833;28;20061;-73
2022/05/31 02:35:11;;;;;;;19.40;17.52;;;4.70;99.90;;;;;;4984202;28;20085;-73
2022/05/31 02:37:39;;;;;;;21.25;17.73;;;4.70;99.90;;;;;;4981270;28;20450;-73
2022/05/31 02:40:08;;;;;;;20.52;18.05;;;4.80;99.90;;;;;;4955381;28;20093;-73
2022/05/31 02:42:36;;;;;;;19.98;16.67;;;4.80;99.90;;;;;;4969372;28;20058;-74
2022/05/31 02:45:10;;;;;;;19.35;16.60;;;4.90;99.90;;;;;;4966838;28;20221;-72
2022/05/31 02:47:39;;;;;;;19.55;16.27;;;4.80;99.90;;;;;;4985745;28;20053;-74
2022/05/31 02:50:07;;;;;;;16.95;15.23;;;4.90;99.90;;;;;;4993773;28;20104;-73
2022/05/31 02:52:34;;;;;;;20.05;15.98;;;4.90;99.90;;;;;;4969892;28;20081;-74
2022/05/31 02:55:02;;;;;;;18.00;15.73;;;4.70;99.90;;;;;;4951896;28;20492;-74
2022/05/31 02:57:29;;;;;;;20.90;14.75;;;4.60;99.90;;;;;;4992869;28;20073;-73
2022/05/31 03:00:15;;;;;;;16.65;14.93;;;4.60;99.90;;;;;;5005831;28;20080;-74
2022/05/31 03:03:17;;;;;;;17.45;15.95;;;4.40;99.90;;;;;;4913535;29;20146;-72
2022/05/31 03:06:02;;;;;;;18.30;16.48;;;4.30;99.90;;;;;;4997849;28;20061;-73
2022/05/31 03:08:39;;;;;;;19.70;17.00;;;4.40;99.90;;;;;;4973936;28;20046;-73
2022/05/31 03:11:46;;;;;;;18.33;16.42;;;4.40;99.90;;;;;;4966908;28;20061;-74
2022/05/31 03:14:21;;;;;;;19.27;15.65;;;4.30;99.90;;;;;;5012213;28;20062;-72
2022/05/31 03:16:56;;;;;;;16.88;15.25;;;4.20;99.90;;;;;;5000208;28;20082;-74
2022/05/31 03:19:28;;;;;;;16.77;15.50;;;4.10;99.90;;;;;;4961951;28;20045;-72
2022/05/31 03:22:03;;;;;;;17.08;15.48;;;4.20;99.90;;;;;;5000730;28;20501;-72
2022/05/31 03:24:40;;;;;;;21.00;16.58;;;4.40;99.90;;;;;;4980690;28;20081;-76
2022/05/31 03:27:10;;;;;;;22.85;16.67;;;4.40;99.90;;;;;;4983772;28;20101;-73
2022/05/31 03:29:40;;;;;;;20.67;15.65;;;4.50;99.90;;;;;;4974144;28;20056;-72
2022/05/31 03:32:08;;;;;;;22.70;16.77;;;4.60;99.90;;;;;;4986364;28;20053;-73
2022/05/31 03:34:36;;;;;;;19.38;16.40;;;4.70;99.90;;;;;;4987532;28;20157;-73
2022/05/31 03:37:04;;;;;;;20.45;16.17;;;4.70;99.90;;;;;;4970926;28;20101;-74
2022/05/31 03:39:31;;;;;;;17.90;15.85;;;4.80;99.90;;;;;;4994192;28;20058;-72
2022/05/31 03:41:58;;;;;;;17.95;16.10;;;4.80;99.90;;;;;;4980250;28;20513;-74
2022/05/31 03:44:26;;;;;;;18.25;15.77;;;4.70;99.90;;;;;;4973202;28;20042;-73
2022/05/31 03:47:08;;;;;;;17.00;15.30;;;4.60;99.90;;;;;;4955599;28;20108;-73
2022/05/31 03:49:40;;;;;;;19.63;15.80;;;4.60;99.90;;;;;;4993846;28;20100;-72
2022/05/31 03:52:08;;;;;;;20.30;16.05;;;4.60;99.90;;;;;;4983106;28;20057;-73
2022/05/31 03:54:42;;;;;;;;;;;4.70;99.90;;;;;;4987511;28;20085;-72
2022/05/31 03:57:19;;;;;;;17.58;15.80;;;4.70;99.90;;;;;;5004202;28;20382;-74
2022/05/31 03:59:59;;;;;;;17.88;15.52;;;4.70;99.90;;;;;;4987830;28;20163;-74
2022/05/31 04:02:44;;;;;;;20.98;16.48;;;4.60;99.90;;;;;;5004940;28;20168;-73
2022/05/31 04:05:14;;;;;;;18.35;16.40;;;4.50;99.90;;;;;;4986400;28;20062;-73
2022/05/31 04:07:42;;;;;;;20.63;18.38;;;4.40;99.90;;;;;;4969404;28;20927;-74
2022/05/31 04:10:10;;;;;;;18.83;17.17;;;4.50;99.90;;;;;;4976563;28;20505;-74
2022/05/31 04:12:38;;;;;;;19.40;17.45;;;4.60;99.90;;;;;;5001212;28;20050;-71
2022/05/31 04:15:24;;;;;;;22.02;18.42;;;4.70;99.90;;;;;;4995651;28;20038;-74
2022/05/31 04:17:51;;;;;;;20.15;18.00;;;4.70;99.90;;;;;;5017553;28;20050;-73
2022/05/31 04:20:18;;;;;;;20.05;18.05;;;4.60;99.90;;;;;;4977074;28;20071;-73
2022/05/31 04:22:44;;;;;;;22.30;19.00;;;4.60;99.90;;;;;;4964131;28;20055;-73
2022/05/31 04:25:40;;;;;;;25.70;18.88;;;4.60;99.90;;;;;;4897142;28;20499;-73
2022/05/31 04:28:39;;;;;;;22.92;17.95;;;4.90;99.90;;;;;;4961237;28;20134;-73
2022/05/31 04:31:48;;;;;;;18.88;16.92;;;5.00;99.90;;;;;;5000334;28;20053;-74
2022/05/31 04:34:35;;;;;;;17.92;16.02;;;5.40;99.90;;;;;;4978205;28;20090;-74
2022/05/31 04:37:02;;;;;;;17.45;16.02;;;5.70;99.90;;;;;;4970364;28;20508;-73
2022/05/31 04:39:49;;;;;;;19.85;17.73;;;5.90;99.90;;;;;;4980672;28;20041;-72
2022/05/31 04:42:42;;;;;;;19.02;16.98;;;6.10;99.90;;;;;;4970534;28;20149;-71
2022/05/31 04:45:17;;;;;;;20.08;18.20;;;6.40;99.90;;;;;;4975916;28;20041;-73
2022/05/31 04:47:44;;;;;;;20.63;18.88;;;6.80;99.90;;;;;;4984512;28;20634;-72
2022/05/31 04:50:11;;;;;;;22.35;20.05;;;7.10;99.90;;;;;;4977210;28;20121;-73
2022/05/31 04:52:39;;;;;;;23.13;21.20;;;7.30;99.90;;;;;;4984676;28;20886;-75
2022/05/31 04:55:06;;;;;;;24.10;21.85;;;7.40;99.90;;;;;;4985462;28;20050;-73
2022/05/31 04:57:45;;;;;;;24.80;22.80;;;7.70;99.90;;;;;;4985601;28;20115;-74
2022/05/31 05:00:13;;;;;;;25.80;24.08;;;8.00;99.90;;;;;;4971854;28;20462;-74
2022/05/31 05:02:52;;;;;;;27.35;24.98;;;8.30;99.90;;;;;;4966056;28;20141;-71
2022/05/31 05:05:19;;;;;;;28.98;26.27;;;8.60;99.90;;;;;;4977935;28;20201;-75
2022/05/31 05:07:48;;;;;;;28.30;26.02;;;9.10;99.90;;;;;;4982159;28;20085;-75
2022/05/31 05:10:17;;;;;;;26.20;24.23;;;9.60;99.90;;;;;;4958195;28;20047;-74
2022/05/31 05:12:58;;;;;;;26.60;24.77;;;9.80;99.90;;;;;;4986694;28;20493;-75
2022/05/31 05:15:43;;;;;;;;;;;10.10;99.90;;;;;;5004541;28;20053;-74
2022/05/31 05:18:12;;;;;;;26.48;24.40;;;10.40;99.90;;;;;;4972010;28;19929;-75
2022/05/31 05:20:41;;;;;;;27.40;25.20;;;10.70;99.90;;;;;;4959873;28;20319;-73
2022/05/31 05:23:09;;;;;;;27.45;25.55;;;10.90;99.90;;;;;;4983387;28;20050;-73
2022/05/31 05:25:37;;;;;;;27.15;24.90;;;11.20;99.90;;;;;;4998326;28;20409;-75
2022/05/31 05:30:38;;;;;;;26.08;24.20;;;11.60;99.90;;;;;;4966444;28;20578;-75
2022/05/31 05:31:05;;;;;;;26.92;24.83;;;11.80;99.90;;;;;;4976285;28;20107;-74
2022/05/31 05:33:57;;;;;;;26.77;24.48;;;12.20;99.90;;;;;;4961229;28;20476;-74
2022/05/31 05:36:56;;;;;;;25.77;23.67;;;12.00;99.90;;;;;;4958682;28;20054;-74
2022/05/31 05:39:23;;;;;;;25.95;23.77;;;11.70;99.90;;;;;;4976090;28;20134;-75
2022/05/31 05:41:56;;;;;;;25.00;23.23;;;11.70;99.90;;;;;;4997327;28;20068;-73
2022/05/31 05:44:44;;;;;;;26.40;24.40;;;11.60;99.90;;;;;;4961351;28;20057;-75
2022/05/31 05:47:15;;;;;;;26.00;23.83;;;11.60;99.90;;;;;;4984294;28;20416;-75
2022/05/31 05:49:43;;;;;;;26.05;24.35;;;11.60;99.90;;;;;;4974400;28;20061;-73
2022/05/31 05:52:29;;;;;;;;;;;11.70;99.90;;;;;;4999552;28;20233;-74
2022/05/31 05:55:14;;;;;;;26.15;24.30;;;11.40;99.90;;;;;;5006917;28;20125;-73
2022/05/31 05:58:01;;;;;;;26.88;24.40;;;11.30;99.90;;;;;;4995662;28;20134;-75
2022/05/31 06:00:52;;;;;;;25.80;23.88;;;11.40;99.90;;;;;;4979795;28;20050;-73
2022/05/31 06:03:37;;;;;;;26.23;24.08;;;11.30;99.90;;;;;;5002686;28;20050;-74
2022/05/31 06:06:05;;;;;;;25.02;23.13;;;11.30;99.90;;;;;;4968379;28;20055;-73
2022/05/31 06:08:42;;;;;;;25.80;23.75;;;11.20;99.90;;;;;;5002639;28;20504;-73
2022/05/31 06:11:37;;;;;;;25.92;23.92;;;11.00;99.90;;;;;;4973916;28;20046;-73
2022/05/31 06:14:11;;;;;;;24.75;23.02;;;10.90;99.90;;;;;;4987471;28;20140;-72
2022/05/31 06:16:42;;;;;;;25.33;23.83;;;10.80;99.90;;;;;;4976982;28;20054;-72
2022/05/31 06:19:17;;;;;;;25.77;23.77;;;10.70;99.90;;;;;;4981559;28;20043;-73
2022/05/31 06:21:48;;;;;;;26.05;24.00;;;10.90;99.90;;;;;;4997989;28;20054;-73
2022/05/31 06:24:33;;;;;;;25.30;23.50;;;11.00;99.90;;;;;;4976913;28;20050;-72
2022/05/31 06:27:17;;;;;;;25.92;23.95;;;11.10;99.90;;;;;;4979884;28;20159;-73
2022/05/31 06:29:43;;;;;;;27.42;24.98;;;11.00;99.90;;;;;;4996958;28;20054;-73
2022/05/31 06:32:10;;;;;;;26.92;25.08;;;10.80;99.90;;;;;;4997159;28;20122;-73
2022/05/31 06:34:40;;;;;;;27.70;25.35;;;10.70;99.90;;;;;;4997577;28;20061;-73
2022/05/31 06:37:36;;;;;;;28.00;25.90;;;10.80;99.90;;;;;;4995363;28;20038;-72
2022/05/31 06:40:07;;;;;;;26.13;24.42;;;10.80;99.90;;;;;;4977917;28;20169;-73
2022/05/31 06:42:50;;;;;;;27.10;24.90;;;10.80;99.90;;;;;;4970406;28;20053;-72
2022/05/31 06:45:36;;;;;;;27.05;25.08;;;10.90;99.90;;;;;;4992006;28;20053;-75
2022/05/31 06:48:21;;;;;;;26.80;24.80;;;11.10;99.90;;;;;;4989371;28;20057;-75
2022/05/31 06:51:12;;;;;;;26.58;24.58;;;11.10;99.90;;;;;;4977069;28;20068;-74
2022/05/31 06:57:05;;;;;;;25.50;23.90;;;11.50;99.90;;;;;;5005226;28;20156;-74
2022/05/31 06:59:37;;;;;;;24.67;23.02;;;11.50;99.90;;;;;;4987175;28;20053;-73
2022/05/31 07:02:05;;;;;;;24.65;23.02;;;11.70;99.90;;;;;;4987678;28;20156;-75
2022/05/31 07:04:34;;;;;;;25.02;23.17;;;12.00;99.90;;;;;;4986973;28;20058;-73
2022/05/31 07:07:02;;;;;;;25.33;23.50;;;12.10;99.90;;;;;;4949327;28;20043;-73
2022/05/31 07:09:47;;;;;;;24.05;22.50;;;12.20;99.90;;;;;;4992529;28;20046;-76
2022/05/31 07:12:22;;;;;;;24.67;23.05;;;12.00;99.90;;;;;;4986618;28;20049;-72
2022/05/31 07:15:28;;;;;;;23.02;21.45;;;11.90;99.90;;;;;;4979203;28;20050;-73
2022/05/31 07:18:24;;;;;;;23.90;22.42;;;12.10;99.90;;;;;;4954424;28;20056;-73
2022/05/31 07:20:51;;;;;;;23.58;21.88;;;12.20;99.90;;;;;;4990622;28;20057;-73
2022/05/31 07:23:17;;;;;;;23.17;21.50;;;12.40;99.90;;;;;;4966219;28;20058;-73
2022/05/31 07:25:52;;;;;;;22.48;20.88;;;12.70;99.90;;;;;;4967372;28;20046;-72
2022/05/31 07:28:26;;;;;;;23.48;21.77;;;12.90;99.90;;;;;;4967073;28;20527;-73
2022/05/31 07:30:53;;;;;;;22.92;21.25;;;12.80;99.90;;;;;;4998938;28;20057;-73
2022/05/31 07:33:23;;;;;;;21.50;20.10;;;13.00;99.90;;;;;;4999124;28;20571;-74
2022/05/31 07:36:08;;;;;;;21.47;19.87;;;12.90;99.90;;;;;;4967069;28;20141;-74
2022/05/31 07:38:48;;;;;;;21.92;20.50;;;13.10;99.90;;;;;;4993995;28;20117;-72
2022/05/31 07:41:28;;;;;;;22.35;20.95;;;13.20;99.90;;;;;;4963936;28;20133;-74
2022/05/31 07:43:55;;;;;;;23.77;22.25;;;13.00;99.90;;;;;;4959869;28;20150;-77
2022/05/31 07:46:22;;;;;;;22.05;20.65;;;13.00;99.90;;;;;;4961428;28;20119;-78
2022/05/31 07:48:49;;;;;;;22.80;21.40;;;12.80;99.90;;;;;;4945721;28;20062;-75
2022/05/31 07:51:37;;;;;;;23.30;21.63;;;12.60;99.90;;;;;;4957912;28;20073;-76
2022/05/31 07:54:33;;;;;;;23.40;21.92;;;12.90;99.90;;;;;;4957322;28;20055;-77
2022/05/31 07:58:30;;;;;;;24.52;22.67;;;13.50;99.90;;;;;;4946639;28;20564;-75
2022/05/31 08:00:14;;;;;;;23.55;22.05;;;13.70;99.90;;;;;;4943752;28;20473;-75
2022/05/31 08:02:44;;;;;;;21.65;20.27;;;13.90;99.90;;;;;;4927248;29;20087;-74
2022/05/31 08:05:11;;;;;;;22.70;21.00;;;14.10;99.90;;;;;;4927484;29;20048;-75
2022/05/31 08:07:39;;;;;;;22.08;20.88;;;13.90;99.90;;;;;;4958200;28;20178;-75
2022/05/31 08:10:08;;;;;;;23.10;21.45;;;14.30;99.90;;;;;;4941962;28;20430;-76
2022/05/31 08:12:35;;;;;;;21.75;20.45;;;14.40;99.90;;;;;;4959013;28;20530;-76
2022/05/31 08:15:02;;;;;;;21.77;20.25;;;14.00;99.90;;;;;;4947645;28;20453;-77
2022/05/31 08:17:28;;;;;;;22.85;21.10;;;14.10;99.90;;;;;;4948497;28;20277;-76
2022/05/31 08:19:56;;;;;;;24.63;22.65;;;14.50;99.90;;;;;;4946373;29;20115;-75
2022/05/31 08:22:23;;;;;;;23.77;22.23;;;15.00;99.90;;;;;;4928942;28;20138;-75
2022/05/31 08:24:50;;;;;;;23.38;21.90;;;14.60;99.90;;;;;;4934133;29;20056;-77
2022/05/31 08:27:16;;;;;;;23.83;22.08;;;14.40;99.90;;;;;;4941452;28;20054;-77
2022/05/31 08:29:44;;;;;;;24.27;22.77;;;14.60;99.90;;;;;;4945150;28;20119;-77
2022/05/31 08:32:10;;;;;;;22.55;21.05;;;14.60;99.90;;;;;;4934963;28;20094;-77
2022/05/31 08:34:37;;;;;;;23.73;22.17;;;14.60;99.90;;;;;;4927066;29;20075;-76
2022/05/31 08:37:04;;;;;;;22.92;21.13;;;14.70;99.90;;;;;;4926467;28;20111;-77
2022/05/31 08:39:31;;;;;;;21.50;20.00;;;15.10;99.90;;;;;;4957197;28;20450;-77
2022/05/31 08:42:14;;;;;;;24.10;22.45;;;15.00;99.90;;;;;;4969122;28;20075;-77
2022/05/31 08:44:53;;;;;;;22.77;21.45;;;14.80;99.90;;;;;;4969086;28;20713;-75
2022/05/31 08:47:43;;;;;;;22.98;21.73;;;14.70;99.90;;;;;;4962907;28;20070;-76
2022/05/31 08:53:30;;;;;;;21.85;20.45;;;15.50;99.90;;;;;;4936946;29;20117;-77
2022/05/31 08:58:49;;;;;;;24.02;22.52;;;16.60;99.90;;;;;;4960589;28;20051;-76
2022/05/31 09:01:22;;;;;;;23.05;21.55;;;16.40;99.90;;;;;;4959836;28;20094;-77
2022/05/31 09:03:59;;;;;;;22.75;21.10;;;16.70;99.90;;;;;;4945001;28;20047;-77
2022/05/31 09:06:32;;;;;;;23.40;21.92;;;16.90;99.90;;;;;;4960491;28;20043;-77
2022/05/31 09:09:12;;;;;;;23.45;22.05;;;16.90;99.90;;;;;;4945998;28;20052;-77
2022/05/31 09:12:12;;;;;;;23.70;22.30;;;16.90;99.90;;;;;;4944079;28;20105;-77
2022/05/31 09:15:07;;;;;;;24.15;22.50;;;17.40;99.90;;;;;;4970347;28;20050;-76
2022/05/31 09:17:51;;;;;;;25.63;23.85;;;17.20;99.90;;;;;;4945971;28;20549;-76
2022/05/31 09:20:31;;;;;;;24.98;23.38;;;16.50;99.90;;;;;;4944171;28;20138;-77
2022/05/31 09:22:59;;;;;;;24.35;22.85;;;16.80;99.90;;;;;;4953625;28;20525;-77
2022/05/31 09:25:30;;;;;;;25.08;23.52;;;17.10;99.90;;;;;;4954747;28;20074;-77
2022/05/31 09:27:59;;;;;;;24.90;23.30;;;17.00;99.90;;;;;;4963706;28;20055;-77
2022/05/31 09:30:34;;;;;;;23.75;22.27;;;17.20;99.90;;;;;;4979116;28;20769;-76
2022/05/31 09:33:33;;;;;;;25.08;23.42;;;17.10;99.90;;;;;;4962277;28;20489;-77
2022/05/31 09:36:24;;;;;;;25.33;23.60;;;17.50;99.90;;;;;;4956216;28;20052;-77
2022/05/31 09:39:06;;;;;;;25.13;23.58;;;18.00;99.90;;;;;;4966823;28;20039;-76
2022/05/31 09:41:37;;;;;;;25.42;23.63;;;17.30;99.90;;;;;;4979122;28;20058;-77
2022/05/31 09:44:34;;;;;;;24.90;23.40;;;16.90;99.90;;;;;;4959044;28;20043;-77
2022/05/31 09:47:01;;;;;;;26.05;24.25;;;17.50;99.90;;;;;;4948166;28;20449;-77
2022/05/31 09:49:36;;;;;;;26.05;24.27;;;17.50;99.90;;;;;;4944349;28;20114;-77
2022/05/31 09:52:17;;;;;;;25.95;24.48;;;17.70;99.90;;;;;;4944860;28;20062;-77
2022/05/31 09:58:10;;;;;;;26.17;24.17;;;17.60;99.90;;;;;;4945546;28;20916;-76
2022/05/31 10:01:13;;;;;;;25.52;24.02;;;18.20;99.90;;;;;;4946824;28;20174;-77
2022/05/31 10:03:52;;;;;;;25.73;24.30;;;18.10;99.90;;;;;;4948848;28;20051;-76
2022/05/31 10:06:28;;;;;;;26.05;24.35;;;17.90;99.90;;;;;;4958684;28;20044;-76
2022/05/31 10:08:56;;;;;;;26.52;24.40;;;18.20;99.90;;;;;;4946205;28;20051;-76
2022/05/31 10:11:33;;;;;;;25.10;23.40;;;18.60;99.90;;;;;;4942166;28;20047;-77
2022/05/31 10:14:15;;;;;;;24.95;23.15;;;19.00;99.90;;;;;;4953273;28;20460;-77
2022/05/31 10:16:42;;;;;;;24.25;22.80;;;19.40;99.90;;;;;;4960457;28;20047;-77
2022/05/31 10:19:25;;;;;;;24.30;22.88;;;19.60;99.90;;;;;;4952090;28;20129;-77
2022/05/31 10:21:52;;;;;;;25.58;23.77;;;19.50;99.90;;;;;;4958306;28;20572;-76
2022/05/31 10:24:38;;;;;;;24.75;22.98;;;19.20;99.90;;;;;;4960353;28;20047;-76
2022/05/31 10:27:40;;;;;;;25.77;23.92;;;18.90;99.90;;;;;;4905166;29;20052;-76
2022/05/31 10:30:20;;;;;;;25.45;23.58;;;18.10;99.90;;;;;;4935815;28;20423;-76
2022/05/31 10:33:04;;;;;;;27.45;25.85;;;17.80;99.60;;;;;;4938978;28;20052;-76
2022/05/31 10:35:34;;;;;;;28.27;26.38;;;17.70;99.90;;;;;;4922684;28;20047;-74
2022/05/31 10:38:10;;;;;;;27.13;25.42;;;17.70;99.90;;;;;;4934408;28;20506;-75
2022/05/31 10:40:52;;;;;;;25.73;24.02;;;17.70;99.90;;;;;;4942230;28;20155;-74
2022/05/31 10:43:37;;;;;;;25.25;23.55;;;17.50;99.90;;;;;;4939937;28;20051;-74
2022/05/31 10:46:13;;;;;;;24.98;23.30;;;17.20;99.90;;;;;;4966467;28;20086;-74
2022/05/31 10:48:46;;;;;;;25.20;23.58;;;17.00;99.90;;;;;;4944133;28;20039;-72
2022/05/31 10:51:26;;;;;;;25.20;23.38;;;16.90;99.90;;;;;;4947140;28;20055;-71
2022/05/31 10:54:02;;;;;;;25.55;23.92;;;16.50;99.90;;;;;;4946627;28;20272;-72
2022/05/31 10:56:51;;;;;;;25.63;23.95;;;16.50;99.90;;;;;;4942338;28;20130;-72
2022/05/31 10:59:57;;;;;;;24.95;23.30;;;16.90;99.90;;;;;;4960023;28;20166;-72
2022/05/31 11:02:53;;;;;;;25.65;23.92;;;17.00;99.90;;;;;;4941851;28;20047;-72
2022/05/31 11:05:50;;;;;;;24.95;23.55;;;16.80;99.90;;;;;;4945307;28;20532;-73
2022/05/31 11:11:33;;;;;;;25.10;23.17;;;16.80;99.90;;;;;;4944553;28;20058;-74
2022/05/31 11:14:15;;;;;;;25.00;23.30;;;16.90;99.90;;;;;;4954130;28;20069;-71
2022/05/31 11:16:53;;;;;;;25.40;23.88;;;17.00;99.90;;;;;;4964816;28;20047;-72
2022/05/31 11:19:38;;;;;;;29.17;27.38;;;17.10;99.90;;;;;;4945702;28;20475;-71
2022/05/31 11:22:16;;;;;;;26.05;24.38;;;17.40;99.90;;;;;;4947838;28;20062;-70
2022/05/31 11:25:14;;;;;;;24.80;22.80;;;18.10;99.90;;;;;;4957762;28;20058;-71
2022/05/31 11:27:49;;;;;;;24.60;23.00;;;18.20;99.90;;;;;;4960867;28;20080;-71
2022/05/31 11:30:27;;;;;;;24.30;22.80;;;17.70;99.90;;;;;;4946023;28;20051;-72
2022/05/31 11:33:18;;;;;;;24.45;22.83;;;17.40;99.90;;;;;;4945336;28;20130;-71
2022/05/31 11:36:11;;;;;;;24.10;22.67;;;17.10;99.90;;;;;;4926610;28;20570;-72
2022/05/31 11:39:09;;;;;;;26.35;24.75;;;17.00;99.90;;;;;;4936282;28;20136;-72
2022/05/31 11:42:11;;;;;;;27.42;25.83;;;16.90;99.90;;;;;;4963582;28;20046;-71
2022/05/31 11:45:05;;;;;;;30.15;28.55;;;16.90;99.90;;;;;;4960544;28;20475;-71
2022/05/31 11:48:07;;;;;;;31.42;29.38;;;17.10;99.90;;;;;;4926804;28;20095;-73
2022/05/31 11:50:56;;;;;;;26.27;24.67;;;16.90;99.90;;;;;;4939802;28;20067;-73
2022/05/31 11:53:46;;;;;;;27.55;25.85;;;16.90;99.90;;;;;;4940549;29;20079;-73
2022/05/31 11:56:24;;;;;;;27.17;25.35;;;16.50;99.90;;;;;;4925891;28;20043;-73
2022/05/31 11:58:58;;;;;;;27.55;25.75;;;16.50;99.90;;;;;;4926486;29;20745;-73
2022/05/31 12:01:34;;;;;;;26.00;24.33;;;16.80;99.90;;;;;;4924802;28;20048;-73
2022/05/31 12:04:36;;;;;;;26.60;24.75;;;17.00;99.90;;;;;;4924171;29;20052;-73
2022/05/31 12:07:18;;;;;;;;;;;17.20;99.90;;;;;;4925250;28;20044;-73
2022/05/31 12:09:50;;;;;;;24.55;23.08;;;17.00;99.90;;;;;;4925766;29;19958;-72
2022/05/31 12:12:30;;;;;;;23.60;22.05;;;17.00;99.90;;;;;;4925309;28;20135;-73
2022/05/31 12:15:27;;;;;;;25.48;23.70;;;17.00;99.90;;;;;;4958321;28;20047;-73
2022/05/31 12:17:57;;;;;;;25.98;24.27;;;16.30;99.90;;;;;;4926156;28;20182;-73
2022/05/31 12:20:38;;;;;;;25.90;24.23;;;15.70;99.90;;;;;;4946173;28;20098;-71
2022/05/31 12:23:38;;;;;;;24.83;23.38;;;14.90;99.90;;;;;;4947769;28;20063;-71
2022/05/31 12:26:25;;;;;;;23.20;21.63;;;13.90;99.90;;;;;;4940053;28;20430;-71
2022/05/31 12:29:06;;;;;;;21.65;20.35;;;13.20;99.90;;;;;;4956169;28;20485;-71
2022/05/31 12:31:35;;;;;;;21.15;19.73;;;12.90;99.90;;;;;;4954776;28;20052;-71
2022/05/31 12:34:21;;;;;;;20.48;19.23;;;12.60;99.90;;;;;;4924209;29;20093;-71
2022/05/31 12:37:13;;;;;;;21.25;19.77;;;12.50;99.90;;;;;;4924624;28;20466;-71
2022/05/31 12:39:46;;;;;;;20.40;19.15;;;12.30;99.90;;;;;;4971687;28;20051;-72
2022/05/31 12:42:13;;;;;;;18.10;16.85;;;12.00;99.90;;;;;;4962671;28;20571;-71
2022/05/31 12:44:42;;;;;;;15.95;14.75;;;11.80;99.90;;;;;;4951642;28;20261;-71
2022/05/31 12:47:17;;;;;;;15.23;14.07;;;11.50;99.90;;;;;;4946368;28;20609;-71
2022/05/31 12:49:53;;;;;;;14.38;13.20;;;11.30;99.90;;;;;;4962699;28;20147;-74
2022/05/31 12:54:56;;;;;;;15.05;13.93;;;11.50;99.90;;;;;;4943165;28;20046;-72
2022/05/31 12:57:24;;;;;;;14.23;13.30;;;11.50;99.90;;;;;;4943570;28;20058;-72
2022/05/31 12:59:58;;;;;;;12.60;11.50;;;11.50;99.90;;;;;;4959113;28;20051;-72
2022/05/31 13:02:36;;;;;;;13.35;12.05;;;11.60;99.90;;;;;;4931296;28;20586;-72
2022/05/31 13:05:25;;;;;;;11.65;10.70;;;11.70;99.90;;;;;;4923937;28;20487;-71
2022/05/31 13:08:11;;;;;;;11.40;10.70;;;11.70;99.90;;;;;;4924391;29;20051;-71
2022/05/31 13:19:34;;;;;;;11.75;10.95;;;11.40;99.90;;;;;;4937572;28;20399;-71
2022/05/31 13:19:34;;;;;;;8.75;8.15;;;11.90;99.90;;;;;;4946138;28;20043;-71
2022/05/31 13:22:12;;;;;;;9.10;8.18;;;12.20;99.90;;;;;;4942798;28;20043;-72
2022/05/31 13:24:47;;;;;;;8.23;7.72;;;12.60;99.90;;;;;;4942978;28;20134;-71
2022/05/31 13:27:18;;;;;;;8.93;8.23;;;12.90;99.90;;;;;;4942796;28;20138;-72
2022/05/31 13:29:44;;;;;;;10.38;9.48;;;13.20;99.90;;;;;;4957521;28;20054;-72
2022/05/31 13:32:11;;;;;;;12.25;11.48;;;13.40;99.90;;;;;;4957573;28;20585;-71
2022/05/31 13:34:43;;;;;;;16.00;15.00;;;13.50;99.90;;;;;;4941551;28;20115;-72
2022/05/31 13:37:19;;;;;;;15.65;14.65;;;13.40;99.90;;;;;;4939717;29;20071;-72
2022/05/31 13:39:47;;;;;;;15.32;14.52;;;13.50;99.90;;;;;;4955247;28;20093;-72
2022/05/31 13:42:34;;;;;;;17.65;16.65;;;13.60;99.90;;;;;;4937436;23;20067;-76
2022/05/31 13:45:05;;;;;;;17.83;16.85;;;13.70;99.90;;;;;;4959959;28;20382;-73
2022/05/31 13:47:34;;;;;;;18.73;17.70;;;13.30;99.90;;;;;;4966206;28;20082;-73